createdAt,value
2022-10-18T00:02:02.146Z,4.1
2022-10-18T00:04:03.144Z,4.11
2022-10-18T00:08:06.480Z,4.1
2022-10-18T00:10:08.270Z,4.1
2022-10-18T00:12:09.165Z,4.1
2022-10-18T00:14:10.290Z,4.1
2022-10-18T00:18:12.736Z,4.1
2022-10-18T00:20:14.047Z,4.1
2022-10-18T00:22:15.226Z,4.1
2022-10-18T00:24:16.823Z,4.1
2022-10-18T00:26:18.092Z,4.1
2022-10-18T00:28:19.793Z,4.1
2022-10-18T00:30:21.553Z,4.1
2022-10-18T00:32:23.206Z,4.1
2022-10-18T00:34:24.257Z,4.1
2022-10-18T00:38:27.825Z,4.1
2022-10-18T00:40:28.974Z,4.1
2022-10-18T00:44:31.589Z,4.1
2022-10-18T00:46:33.329Z,4.1
2022-10-18T00:48:34.313Z,4.1
2022-10-18T00:50:35.969Z,4.1
2022-10-18T00:52:37.615Z,4.1
2022-10-18T00:54:39.155Z,4.1
2022-10-18T00:56:40.400Z,4.1
2022-10-18T01:00:42.905Z,4.1
2022-10-18T01:02:44.484Z,4.1
2022-10-18T01:04:45.754Z,4.1
2022-10-18T01:06:47.525Z,4.09
2022-10-18T01:08:48.709Z,4.1
2022-10-18T01:10:50.082Z,4.1
2022-10-18T01:12:51.358Z,4.1
2022-10-18T01:14:52.931Z,4.1
2022-10-18T01:16:54.789Z,4.1
2022-10-18T01:18:56.454Z,4.1
2022-10-18T01:21:41.403Z,4.09
2022-10-18T01:23:42.309Z,4.1
2022-10-18T01:27:45.853Z,4.09
2022-10-18T01:29:47.302Z,4.09
2022-10-18T01:31:49.052Z,4.09
2022-10-18T01:33:50.432Z,4.09
2022-10-18T01:37:53.374Z,4.09
2022-10-18T01:39:54.607Z,4.09
2022-10-18T01:41:55.690Z,4.09
2022-10-18T01:43:57.468Z,4.09
2022-10-18T01:45:59.283Z,4.09
2022-10-18T01:48:00.601Z,4.09
2022-10-18T01:50:01.963Z,4.09
2022-10-18T01:52:03.498Z,4.09
2022-10-18T01:54:04.745Z,4.09
2022-10-18T01:56:06.014Z,4.09
2022-10-18T01:58:06.910Z,4.09
2022-10-18T02:00:07.929Z,4.09
2022-10-18T02:04:11.038Z,4.08
2022-10-18T02:06:12.664Z,4.08
2022-10-18T02:08:22.706Z,4.08
2022-10-18T02:12:16.254Z,4.08
2022-10-18T02:14:17.514Z,4.09
2022-10-18T02:16:19.357Z,4.08
2022-10-18T02:20:22.382Z,4.08
2022-10-18T02:22:24.146Z,4.08
2022-10-18T02:26:27.023Z,4.08
2022-10-18T02:28:28.563Z,4.08
2022-10-18T02:30:29.564Z,4.08
2022-10-18T02:32:31.070Z,4.08
2022-10-18T02:36:42.748Z,4.08
2022-10-18T02:38:35.235Z,4.08
2022-10-18T02:40:36.588Z,4.08
2022-10-18T02:42:38.053Z,4.08
2022-10-18T02:44:39.408Z,4.08
2022-10-18T02:46:40.910Z,4.08
2022-10-18T02:48:42.337Z,4.08
2022-10-18T02:52:45.036Z,4.08
2022-10-18T02:54:46.173Z,4.08
2022-10-18T02:56:47.150Z,4.08
2022-10-18T02:58:48.334Z,4.08
2022-10-18T03:02:51.827Z,4.08
2022-10-18T03:04:52.748Z,4.08
2022-10-18T03:06:54.492Z,4.08
2022-10-18T03:08:55.601Z,4.08
2022-10-18T03:10:57.247Z,4.08
2022-10-18T03:12:58.500Z,4.08
2022-10-18T03:15:00.131Z,4.07
2022-10-18T03:17:01.411Z,4.08
2022-10-18T03:19:02.914Z,4.07
2022-10-18T03:21:04.030Z,4.07
2022-10-18T03:23:05.322Z,4.07
2022-10-18T03:25:06.882Z,4.07
2022-10-18T03:27:08.277Z,4.07
2022-10-18T03:29:09.815Z,4.07
2022-10-18T03:31:11.070Z,4.07
2022-10-18T03:35:13.339Z,4.07
2022-10-18T03:37:15.012Z,4.07
2022-10-18T03:39:16.862Z,4.07
2022-10-18T03:41:17.903Z,4.07
2022-10-18T03:45:20.640Z,4.07
2022-10-18T03:47:21.992Z,4.07
2022-10-18T03:51:24.425Z,4.07
2022-10-18T03:53:25.803Z,4.07
2022-10-18T03:55:27.046Z,4.07
2022-10-18T03:57:27.973Z,4.07
2022-10-18T04:01:30.575Z,4.07
2022-10-18T04:03:31.791Z,4.07
2022-10-18T04:07:34.110Z,4.07
2022-10-18T04:09:35.787Z,4.07
2022-10-18T04:11:37.372Z,4.07
2022-10-18T04:13:38.986Z,4.07
2022-10-18T04:17:41.559Z,4.07
2022-10-18T04:19:43.200Z,4.07
2022-10-18T04:21:44.683Z,4.06
2022-10-18T04:23:45.662Z,4.06
2022-10-18T04:27:48.548Z,4.06
2022-10-18T04:29:49.910Z,4.06
2022-10-18T04:31:51.303Z,4.06
2022-10-18T04:33:53.172Z,4.06
2022-10-18T04:37:55.561Z,4.06
2022-10-18T04:39:56.988Z,4.06
2022-10-18T04:41:58.186Z,4.06
2022-10-18T04:43:59.312Z,4.06
2022-10-18T04:48:02.218Z,4.06
2022-10-18T04:50:03.744Z,4.06
2022-10-18T04:52:04.846Z,4.06
2022-10-18T04:54:06.090Z,4.06
2022-10-18T04:56:07.492Z,4.06
2022-10-18T05:00:09.985Z,4.06
2022-10-18T05:02:11.636Z,4.06
2022-10-18T05:04:13.043Z,4.06
2022-10-18T05:06:14.197Z,4.06
2022-10-18T05:08:15.917Z,4.06
2022-10-18T05:10:17.174Z,4.06
2022-10-18T05:12:18.955Z,4.06
2022-10-18T05:16:21.273Z,4.06
2022-10-18T05:18:22.561Z,4.06
2022-10-18T05:20:24.146Z,4.06
2022-10-18T05:22:25.104Z,4.06
2022-10-18T05:26:27.883Z,4.06
2022-10-18T05:28:39.449Z,4.06
2022-10-18T05:30:31.006Z,4.06
2022-10-18T05:32:33.125Z,4.06
2022-10-18T05:34:33.777Z,4.05
2022-10-18T05:36:35.555Z,4.06
2022-10-18T05:42:39.412Z,4.06
2022-10-18T05:44:40.710Z,4.05
2022-10-18T05:46:42.253Z,4.05
2022-10-18T05:48:44.015Z,4.05
2022-10-18T05:50:45.848Z,4.05
2022-10-18T05:54:48.933Z,4.05
2022-10-18T05:58:51.460Z,4.05
2022-10-18T06:00:53.168Z,4.05
2022-10-18T06:02:58.143Z,4.05
2022-10-18T06:04:55.785Z,4.05
2022-10-18T06:08:58.069Z,4.05
2022-10-18T06:10:59.295Z,4.05
2022-10-18T06:13:00.591Z,4.05
2022-10-18T06:15:01.843Z,4.05
2022-10-18T06:17:03.562Z,4.05
2022-10-18T06:19:04.658Z,4.05
2022-10-18T06:21:05.871Z,4.04
2022-10-18T06:25:08.297Z,4.05
2022-10-18T06:27:10.186Z,4.05
2022-10-18T06:29:11.878Z,4.04
2022-10-18T06:31:13.631Z,4.05
2022-10-18T06:33:14.522Z,4.04
2022-10-18T06:35:16.025Z,4.05
2022-10-18T06:37:17.616Z,4.05
2022-10-18T06:39:18.683Z,4.06
2022-10-18T06:41:20.332Z,4.06
2022-10-18T06:43:21.775Z,4.06
2022-10-18T06:45:23.028Z,4.05
2022-10-18T06:47:24.275Z,4.05
2022-10-18T06:51:27.563Z,4.05
2022-10-18T06:53:28.611Z,4.05
2022-10-18T06:55:29.934Z,4.05
2022-10-18T06:57:30.846Z,4.05
2022-10-18T06:59:32.081Z,4.04
2022-10-18T07:03:35.493Z,4.05
2022-10-18T07:05:36.953Z,4.05
2022-10-18T07:07:38.475Z,4.06
2022-10-18T07:09:39.442Z,4.06
2022-10-18T07:13:42.711Z,4.1
2022-10-18T07:15:44.462Z,4.1
2022-10-18T07:17:46.182Z,4.08
2022-10-18T07:19:47.100Z,4.08
2022-10-18T07:23:50.125Z,4.09
2022-10-18T07:25:51.225Z,4.08
2022-10-18T07:27:52.338Z,4.08
2022-10-18T07:29:53.495Z,4.08
2022-10-18T07:31:54.458Z,4.08
2022-10-18T07:33:56.244Z,4.08
2022-10-18T07:35:57.392Z,4.09
2022-10-18T07:37:58.862Z,4.08
2022-10-18T07:39:59.781Z,4.1
2022-10-18T07:42:01.466Z,4.09
2022-10-18T07:46:04.379Z,4.12
2022-10-18T07:48:05.876Z,4.12
2022-10-18T07:50:06.988Z,4.13
2022-10-18T07:52:08.686Z,4.13
2022-10-18T07:54:10.008Z,4.13
2022-10-18T07:56:11.598Z,4.14
2022-10-18T07:58:13.101Z,4.11
2022-10-18T08:02:16.021Z,4.11
2022-10-18T08:04:17.308Z,4.11
2022-10-18T08:05:01.011Z,4.11
2022-10-18T08:07:02.845Z,4.11
2022-10-18T08:09:04.461Z,4.11
2022-10-18T08:11:06.186Z,4.11
2022-10-18T08:13:07.965Z,4.11
2022-10-18T08:17:10.763Z,4.12
2022-10-18T08:19:12.214Z,4.12
2022-10-18T08:23:15.061Z,4.14
2022-10-18T08:25:16.336Z,4.15
2022-10-18T08:27:17.270Z,4.15
2022-10-18T08:29:23.137Z,4.15
2022-10-18T08:33:20.965Z,4.16
2022-10-18T08:35:22.554Z,4.16
2022-10-18T08:37:23.480Z,4.17
2022-10-18T08:39:24.692Z,4.14
2022-10-18T08:41:26.106Z,4.14
2022-10-18T08:43:27.211Z,4.14
2022-10-18T08:47:29.620Z,4.14
2022-10-18T08:49:30.408Z,4.14
2022-10-18T08:51:31.392Z,4.16
2022-10-18T08:53:34.029Z,4.15
2022-10-18T08:55:33.171Z,4.16
2022-10-18T08:59:36.343Z,4.16
2022-10-18T09:01:37.931Z,4.17
2022-10-18T09:03:39.301Z,4.17
2022-10-18T09:05:40.738Z,4.17
2022-10-18T09:07:41.944Z,4.18
2022-10-18T09:09:43.181Z,4.18
2022-10-18T09:11:44.585Z,4.18
2022-10-18T09:15:47.380Z,4.18
2022-10-18T09:17:48.349Z,4.18
2022-10-18T09:21:51.173Z,4.19
2022-10-18T09:23:52.441Z,4.17
2022-10-18T09:25:53.673Z,4.17
2022-10-18T09:27:55.394Z,4.17
2022-10-18T09:31:57.806Z,4.17
2022-10-18T09:33:58.780Z,4.17
2022-10-18T09:35:59.749Z,4.17
2022-10-18T09:38:00.659Z,4.17
2022-10-18T09:40:02.028Z,4.17
2022-10-18T09:42:03.559Z,4.17
2022-10-18T09:44:04.939Z,4.17
2022-10-18T09:48:07.329Z,4.19
2022-10-18T09:50:08.446Z,4.19
2022-10-18T09:52:09.908Z,4.19
2022-10-18T09:54:11.240Z,4.19
2022-10-18T09:56:13.032Z,4.19
2022-10-18T09:58:14.101Z,4.19
2022-10-18T10:00:15.030Z,4.18
2022-10-18T10:02:15.981Z,4.18
2022-10-18T10:04:18.275Z,4.19
2022-10-18T10:06:19.980Z,4.19
2022-10-18T10:08:21.738Z,4.19
2022-10-18T10:10:23.539Z,4.19
2022-10-18T10:14:26.781Z,4.19
2022-10-18T10:16:28.369Z,4.2
2022-10-18T10:18:29.245Z,4.2
2022-10-18T10:20:31.592Z,4.2
2022-10-18T10:22:33.242Z,4.2
2022-10-18T10:24:34.599Z,4.2
2022-10-18T10:26:35.741Z,4.2
2022-10-18T10:28:37.426Z,4.2
2022-10-18T10:32:39.596Z,4.2
2022-10-18T10:34:43.822Z,4.2
2022-10-18T10:36:42.597Z,4.2
2022-10-18T10:40:44.884Z,4.2
2022-10-18T10:42:46.362Z,4.2
2022-10-18T10:44:47.439Z,4.19
2022-10-18T10:46:49.144Z,4.19
2022-10-18T10:48:52.148Z,4.19
2022-10-18T10:50:54.309Z,4.19
2022-10-18T10:52:53.194Z,4.19
2022-10-18T10:56:55.835Z,4.19
2022-10-18T10:58:57.173Z,4.19
2022-10-18T11:00:58.407Z,4.19
2022-10-18T11:03:05.824Z,4.19
2022-10-18T11:05:01.083Z,4.19
2022-10-18T11:07:02.354Z,4.19
2022-10-18T11:09:04.135Z,4.18
2022-10-18T11:13:06.678Z,4.18
2022-10-18T11:15:07.555Z,4.18
2022-10-18T11:17:08.588Z,4.18
2022-10-18T11:21:11.934Z,4.19
2022-10-18T11:23:12.854Z,4.18
2022-10-18T11:25:14.111Z,4.18
2022-10-18T11:27:15.766Z,4.18
2022-10-18T11:29:17.457Z,4.18
2022-10-18T11:31:18.864Z,4.18
2022-10-18T11:33:20.389Z,4.18
2022-10-18T11:35:21.820Z,4.18
2022-10-18T11:39:24.430Z,4.18
2022-10-18T11:41:25.838Z,4.18
2022-10-18T11:47:30.217Z,4.17
2022-10-18T11:49:31.386Z,4.17
2022-10-18T11:51:34.245Z,4.17
2022-10-18T11:55:34.953Z,4.18
2022-10-18T11:57:36.113Z,4.17
2022-10-18T11:59:37.418Z,4.17
2022-10-18T12:03:40.257Z,4.17
2022-10-18T12:05:41.495Z,4.17
2022-10-18T12:07:43.288Z,4.17
2022-10-18T12:09:44.676Z,4.17
2022-10-18T12:11:47.202Z,4.17
2022-10-18T12:13:48.176Z,4.17
2022-10-18T12:15:49.924Z,4.17
2022-10-18T12:17:51.293Z,4.17
2022-10-18T12:21:53.950Z,4.17
2022-10-18T12:23:54.786Z,4.17
2022-10-18T12:25:56.466Z,4.17
2022-10-18T12:27:57.325Z,4.17
2022-10-18T12:29:58.474Z,4.17
2022-10-18T12:32:00.032Z,4.17
2022-10-18T12:34:01.380Z,4.17
2022-10-18T12:38:03.711Z,4.17
2022-10-18T12:40:10.418Z,4.17
2022-10-18T12:42:06.387Z,4.17
2022-10-18T12:44:07.938Z,4.17
2022-10-18T12:46:13.199Z,4.17
2022-10-18T12:48:11.211Z,4.17
2022-10-18T12:50:12.453Z,4.17
2022-10-18T12:54:14.857Z,4.17
2022-10-18T12:56:15.681Z,4.16
2022-10-18T12:58:16.713Z,4.16
2022-10-18T13:00:17.548Z,4.17
2022-10-18T13:04:19.809Z,4.16
2022-10-18T13:06:20.783Z,4.16
2022-10-18T13:10:23.493Z,4.16
2022-10-18T13:12:24.658Z,4.16
2022-10-18T13:14:26.177Z,4.16
2022-10-18T13:16:27.521Z,4.16
2022-10-18T13:20:30.161Z,4.16
2022-10-18T13:22:31.439Z,4.16
2022-10-18T13:24:32.795Z,4.16
2022-10-18T13:26:33.597Z,4.16
2022-10-18T13:28:34.889Z,4.16
2022-10-18T13:30:35.770Z,4.16
2022-10-18T13:32:36.990Z,4.16
2022-10-18T13:36:39.613Z,4.16
2022-10-18T13:38:40.656Z,4.16
2022-10-18T13:42:42.598Z,4.16
2022-10-18T13:46:45.715Z,4.16
2022-10-18T13:48:46.798Z,4.16
2022-10-18T13:50:48.019Z,4.15
2022-10-18T13:52:49.154Z,4.15
2022-10-18T13:54:50.044Z,4.16
2022-10-18T13:56:51.283Z,4.16
2022-10-18T13:59:05.604Z,4.16
2022-10-18T14:02:59.574Z,4.16
2022-10-18T14:05:06.163Z,4.16
2022-10-18T14:07:01.333Z,4.15
2022-10-18T14:08:58.281Z,4.15
2022-10-18T14:11:02.154Z,4.15
2022-10-18T14:13:01.101Z,4.15
2022-10-18T14:15:02.663Z,4.15
2022-10-18T14:19:05.623Z,4.15
2022-10-18T14:21:14.684Z,4.15
2022-10-18T14:23:08.928Z,4.15
2022-10-18T14:25:10.193Z,4.15
2022-10-18T14:27:11.214Z,4.15
2022-10-18T14:29:13.078Z,4.15
2022-10-18T14:31:14.691Z,4.15
2022-10-18T14:35:31.408Z,4.15
2022-10-18T14:37:19.212Z,4.15
2022-10-18T14:39:20.339Z,4.15
2022-10-18T14:41:22.057Z,4.14
2022-10-18T14:45:24.300Z,4.14
2022-10-18T14:47:25.853Z,4.15
2022-10-18T14:49:27.130Z,4.15
2022-10-18T14:50:10.867Z,4.14
2022-10-18T14:52:13.790Z,4.14
2022-10-18T14:56:14.149Z,4.14
2022-10-18T14:58:15.139Z,4.14
2022-10-18T15:02:18.348Z,4.15
2022-10-18T15:04:19.408Z,4.14
2022-10-18T15:08:21.733Z,4.14
2022-10-18T15:12:24.992Z,4.14
2022-10-18T15:14:26.276Z,4.14
2022-10-18T15:16:27.897Z,4.14
2022-10-18T15:18:28.807Z,4.14
2022-10-18T15:22:32.807Z,4.14
2022-10-18T15:24:33.103Z,4.14
2022-10-18T15:26:34.317Z,4.14
2022-10-18T15:28:36.190Z,4.14
2022-10-18T15:30:37.656Z,4.14
2022-10-18T15:32:39.287Z,4.14
2022-10-18T15:34:40.171Z,4.14
2022-10-18T15:36:41.297Z,4.14
2022-10-18T15:38:45.101Z,4.14
2022-10-18T15:40:44.006Z,4.14
2022-10-18T15:44:47.373Z,4.14
2022-10-18T15:46:48.286Z,4.14
2022-10-18T15:48:49.398Z,4.13
2022-10-18T15:50:50.339Z,4.14
2022-10-18T15:54:54.007Z,4.14
2022-10-18T15:56:55.555Z,4.13
2022-10-18T15:58:56.582Z,4.14
2022-10-18T16:00:58.216Z,4.13
2022-10-18T16:02:59.368Z,4.13
2022-10-18T16:05:00.261Z,4.14
2022-10-18T16:07:01.603Z,4.13
2022-10-18T16:11:04.046Z,4.13
2022-10-18T16:13:05.476Z,4.13
2022-10-18T16:15:07.320Z,4.13
2022-10-18T16:17:08.607Z,4.13
2022-10-18T16:21:11.511Z,4.13
2022-10-18T16:23:12.822Z,4.13
2022-10-18T16:25:14.589Z,4.13
2022-10-18T16:27:16.326Z,4.13
2022-10-18T16:29:18.174Z,4.13
2022-10-18T16:31:19.505Z,4.13
2022-10-18T16:33:21.550Z,4.13
2022-10-18T16:35:22.504Z,4.13
2022-10-18T16:37:23.524Z,4.13
2022-10-18T16:39:25.104Z,4.13
2022-10-18T16:41:25.977Z,4.13
2022-10-18T16:43:27.496Z,4.13
2022-10-18T16:45:28.561Z,4.13
2022-10-18T16:47:30.213Z,4.13
2022-10-18T16:49:31.833Z,4.12
2022-10-18T16:53:33.972Z,4.12
2022-10-18T16:55:35.587Z,4.13
2022-10-18T16:57:37.246Z,4.13
2022-10-18T16:59:38.951Z,4.13
2022-10-18T17:01:39.843Z,4.12
2022-10-18T17:05:41.990Z,4.12
2022-10-18T17:07:43.111Z,4.12
2022-10-18T17:09:44.078Z,4.13
2022-10-18T17:11:45.253Z,4.12
2022-10-18T17:13:46.224Z,4.12
2022-10-18T17:15:47.547Z,4.12
2022-10-18T17:17:49.044Z,4.12
2022-10-18T17:19:50.732Z,4.12
2022-10-18T17:21:51.707Z,4.12
2022-10-18T17:23:53.347Z,4.12
2022-10-18T17:27:55.616Z,4.12
2022-10-18T17:29:56.717Z,4.12
2022-10-18T17:31:57.590Z,4.12
2022-10-18T17:33:58.522Z,4.12
2022-10-18T17:38:01.934Z,4.12
2022-10-18T17:42:04.119Z,4.12
2022-10-18T17:44:05.262Z,4.12
2022-10-18T17:46:06.591Z,4.12
2022-10-18T17:48:08.262Z,4.12
2022-10-18T17:50:09.821Z,4.12
2022-10-18T17:52:10.760Z,4.12
2022-10-18T17:54:11.645Z,4.12
2022-10-18T17:56:13.202Z,4.12
2022-10-18T17:58:14.205Z,4.12
2022-10-18T18:02:17.640Z,4.12
2022-10-18T18:04:18.769Z,4.11
2022-10-18T18:06:20.354Z,4.11
2022-10-18T18:08:21.751Z,4.12
2022-10-18T18:10:22.748Z,4.11
2022-10-18T18:12:23.728Z,4.11
2022-10-18T18:14:24.613Z,4.11
2022-10-18T18:18:27.425Z,4.11
2022-10-18T18:20:28.747Z,4.11
2022-10-18T18:22:30.472Z,4.11
2022-10-18T18:24:31.872Z,4.11
2022-10-18T18:26:33.346Z,4.11
2022-10-18T18:28:34.525Z,4.11
2022-10-18T18:30:36.074Z,4.11
2022-10-18T18:34:38.836Z,4.11
2022-10-18T18:36:39.910Z,4.11
2022-10-18T18:38:41.515Z,4.11
2022-10-18T18:40:42.740Z,4.11
2022-10-18T18:42:43.790Z,4.11
2022-10-18T18:44:45.198Z,4.1
2022-10-18T18:46:46.361Z,4.1
2022-10-18T18:48:48.034Z,4.11
2022-10-18T18:50:49.705Z,4.11
2022-10-18T18:52:51.166Z,4.1
2022-10-18T18:54:53.009Z,4.1
2022-10-18T18:56:54.477Z,4.1
2022-10-18T19:00:58.001Z,4.1
2022-10-18T19:02:59.329Z,4.11
2022-10-18T19:07:02.338Z,4.1
2022-10-18T19:09:04.142Z,4.11
2022-10-18T19:11:06.840Z,4.1
2022-10-18T19:13:07.091Z,4.1
2022-10-18T19:17:09.664Z,4.1
2022-10-18T19:19:10.811Z,4.1
2022-10-18T19:21:12.111Z,4.1
2022-10-18T19:23:13.456Z,4.1
2022-10-18T19:27:15.637Z,4.1
2022-10-18T19:29:17.035Z,4.1
2022-10-18T19:31:18.529Z,4.1
2022-10-18T19:33:21.262Z,4.1
2022-10-18T19:35:21.360Z,4.1
2022-10-18T19:37:22.288Z,4.1
2022-10-18T19:39:24.124Z,4.1
2022-10-18T19:45:27.813Z,4.1
2022-10-18T19:47:29.594Z,4.1
2022-10-18T19:49:30.615Z,4.1
2022-10-18T19:51:31.562Z,4.1
2022-10-18T19:53:33.440Z,4.1
2022-10-18T19:55:34.689Z,4.1
2022-10-18T19:59:36.957Z,4.09
2022-10-18T20:01:38.262Z,4.1
2022-10-18T20:03:39.833Z,4.09
2022-10-18T20:05:41.532Z,4.1
2022-10-18T20:07:42.498Z,4.1
2022-10-18T20:11:44.696Z,4.09
2022-10-18T20:15:47.297Z,4.09
2022-10-18T20:19:58.327Z,4.09
2022-10-18T20:21:51.987Z,4.09
2022-10-18T20:25:55.125Z,4.09
2022-10-18T20:27:56.364Z,4.09
2022-10-18T20:29:57.710Z,4.09
2022-10-18T20:31:59.228Z,4.09
2022-10-18T20:34:00.162Z,4.09
2022-10-18T20:38:02.270Z,4.09
2022-10-18T20:42:04.986Z,4.09
2022-10-18T20:44:06.344Z,4.09
2022-10-18T20:46:07.521Z,4.09
2022-10-18T20:48:08.538Z,4.09
2022-10-18T20:50:10.093Z,4.09
2022-10-18T20:52:11.741Z,4.09
2022-10-18T20:54:13.345Z,4.08
2022-10-18T20:58:16.241Z,4.08
2022-10-18T21:00:17.260Z,4.09
2022-10-18T21:02:18.277Z,4.08
2022-10-18T21:04:19.321Z,4.08
2022-10-18T21:08:21.869Z,4.08
2022-10-18T21:10:23.519Z,4.08
2022-10-18T21:12:26.440Z,4.08
2022-10-18T21:14:26.279Z,4.08
2022-10-18T21:16:27.819Z,4.08
2022-10-18T21:18:29.292Z,4.08
2022-10-18T21:20:30.856Z,4.08
2022-10-18T21:24:33.594Z,4.08
2022-10-18T21:26:34.582Z,4.08
2022-10-18T21:30:38.111Z,4.08
2022-10-18T21:32:39.575Z,4.08
2022-10-18T21:34:41.070Z,4.08
2022-10-18T21:35:41.013Z,4.08
2022-10-18T21:39:43.938Z,4.08
2022-10-18T21:41:45.665Z,4.08
2022-10-18T21:45:48.554Z,4.08
2022-10-18T21:47:50.103Z,4.08
2022-10-18T21:49:51.174Z,4.08
2022-10-18T21:51:52.581Z,4.08
2022-10-18T21:53:54.301Z,4.08
2022-10-18T21:55:55.445Z,4.08
2022-10-18T21:57:56.376Z,4.08
2022-10-18T22:01:58.808Z,4.08
2022-10-18T22:04:00.313Z,4.08
2022-10-18T22:06:01.498Z,4.07
2022-10-18T22:08:02.413Z,4.07
2022-10-18T22:10:04.203Z,4.07
2022-10-18T22:14:07.736Z,4.07
2022-10-18T22:18:11.044Z,4.07
2022-10-18T22:20:12.591Z,4.07
2022-10-18T22:22:14.411Z,4.07
2022-10-18T22:24:15.723Z,4.07
2022-10-18T22:28:18.841Z,4.07
2022-10-18T22:30:20.673Z,4.07
2022-10-18T22:32:21.741Z,4.07
2022-10-18T22:34:23.215Z,4.07
2022-10-18T22:36:24.828Z,4.07
2022-10-18T22:38:26.486Z,4.07
2022-10-18T22:40:28.246Z,4.07
2022-10-18T22:44:30.586Z,4.07
2022-10-18T22:46:31.902Z,4.07
2022-10-18T22:48:33.055Z,4.07
2022-10-18T22:50:34.314Z,4.07
2022-10-18T22:52:36.121Z,4.07
2022-10-18T22:54:36.770Z,4.06
2022-10-18T22:56:37.892Z,4.07
2022-10-18T23:00:41.473Z,4.07
2022-10-18T23:02:42.370Z,4.06
2022-10-18T23:04:43.950Z,4.06
2022-10-18T23:06:45.090Z,4.06
2022-10-18T23:10:47.342Z,4.06
2022-10-18T23:12:48.358Z,4.06
2022-10-18T23:14:49.288Z,4.06
2022-10-18T23:16:51.090Z,4.06
2022-10-18T23:20:54.272Z,4.06
2022-10-18T23:22:55.914Z,4.06
2022-10-18T23:26:59.340Z,4.06
2022-10-18T23:29:00.618Z,4.06
2022-10-18T23:33:02.933Z,4.06
2022-10-18T23:35:04.302Z,4.06
2022-10-18T23:37:05.964Z,4.06
2022-10-18T23:39:07.078Z,4.06
2022-10-18T23:43:10.622Z,4.06
2022-10-18T23:45:12.299Z,4.06
2022-10-18T23:47:14.062Z,4.06
2022-10-18T23:49:15.375Z,4.06
2022-10-18T23:53:17.475Z,4.06
2022-10-18T23:55:18.836Z,4.06
2022-10-18T23:57:20.306Z,4.06
2022-10-18T23:59:22.063Z,4.06
